Time;durP1;ratioP1;P1;durP2;ratioP2;P2;SDS_P1;SDS_P2;PMS_P1;PMS_P2;Temp;Humidity;BMP_temperature;BMP_pressure;BME280_temperature;BME280_humidity;BME280_pressure;Samples;Min_cycle;Max_cycle;Signal;HPM_P1;HPM_P2
2022/03/21 00:01:59;;;;;;;7.88;4.47;;;;;;;18.71;36.01;102624.94;5065323;28;20443;-71
2022/03/21 00:04:24;;;;;;;5.72;4.25;;;;;;;18.71;36.06;102627.56;5066196;28;20529;-71
2022/03/21 00:06:50;;;;;;;6.53;4.53;;;;;;;18.70;36.06;102631.19;5060473;28;20025;-71
2022/03/21 00:09:16;;;;;;;4.50;3.85;;;;;;;18.70;35.85;102632.00;5066196;28;20043;-71
2022/03/21 00:11:42;;;;;;;7.57;4.50;;;;;;;18.68;36.02;102626.03;5063286;28;20025;-72
2022/03/21 00:14:10;;;;;;;5.80;4.03;;;;;;;18.68;35.96;102628.69;5063852;28;20021;-72
2022/03/21 00:16:37;;;;;;;6.10;4.35;;;;;;;18.68;35.99;102633.13;5066355;28;20135;-71
2022/03/21 00:19:03;;;;;;;7.32;4.20;;;;;;;18.68;36.01;102631.31;5062158;28;20052;-72
2022/03/21 00:21:29;;;;;;;5.25;3.75;;;;;;;18.68;36.04;102626.03;5061758;28;20049;-72
2022/03/21 00:23:55;;;;;;;5.10;3.88;;;;;;;18.69;36.03;102632.16;5058710;28;20044;-72
2022/03/21 00:26:20;;;;;;;7.15;4.15;;;;;;;18.70;35.99;102625.91;5064491;28;20090;-71
2022/03/21 00:28:46;;;;;;;4.70;3.65;;;;;;;18.69;36.03;102625.06;5063881;28;20047;-72
2022/03/21 00:31:11;;;;;;;5.55;3.65;;;;;;;18.70;35.91;102626.72;5065550;28;20537;-72
2022/03/21 00:33:37;;;;;;;6.20;3.47;;;;;;;18.72;36.00;102623.94;5064311;28;20542;-72
2022/03/21 00:36:04;;;;;;;3.92;3.22;;;;;;;18.71;35.75;102627.56;5061906;28;20116;-72
2022/03/21 00:38:30;;;;;;;4.38;3.42;;;;;;;18.70;35.76;102626.72;5063424;28;20032;-72
2022/03/21 00:40:55;;;;;;;5.63;2.95;;;;;;;18.72;35.61;102629.22;5063683;28;20040;-74
2022/03/21 00:43:24;;;;;;;6.63;3.83;;;;;;;18.70;35.66;102626.72;5062605;28;20032;-73
2022/03/21 00:45:52;;;;;;;6.38;3.75;;;;;;;18.70;35.75;102626.72;5065031;28;20039;-72
2022/03/21 00:48:18;;;;;;;6.50;4.13;;;;;;;18.68;35.83;102620.75;5067427;28;20152;-71
2022/03/21 00:50:44;;;;;;;4.68;3.70;;;;;;;18.68;35.63;102617.28;5067969;28;20503;-72
2022/03/21 00:53:09;;;;;;;4.20;3.55;;;;;;;18.67;35.71;102613.81;5063952;28;20044;-72
2022/03/21 00:55:34;;;;;;;5.18;3.85;;;;;;;18.66;35.69;102612.16;5068400;28;20054;-72
2022/03/21 00:58:00;;;;;;;5.18;3.50;;;;;;;18.65;35.65;102612.28;5068567;28;20032;-72
2022/03/21 01:00:28;;;;;;;4.95;3.63;;;;;;;18.64;35.69;102614.09;5067728;28;20032;-70
2022/03/21 01:02:55;;;;;;;5.15;3.88;;;;;;;18.64;35.62;102611.47;5069202;28;20037;-70
2022/03/21 01:05:22;;;;;;;6.20;3.30;;;;;;;18.63;35.60;102608.97;5065821;28;20067;-70
2022/03/21 01:07:48;;;;;;;4.00;3.42;;;;;;;18.62;35.58;102605.50;5065320;28;20123;-71
2022/03/21 01:10:15;;;;;;;5.13;3.67;;;;;;;18.62;35.58;102609.94;5069549;28;20099;-71
2022/03/21 01:12:42;;;;;;;4.40;3.15;;;;;;;18.60;35.67;102610.09;5066838;28;20036;-70
2022/03/21 01:15:08;;;;;;;6.05;3.38;;;;;;;18.59;35.54;102603.13;5067706;28;20032;-70
2022/03/21 01:17:34;;;;;;;5.40;3.58;;;;;;;18.59;35.52;102603.13;5068280;28;20060;-71
2022/03/21 01:20:00;;;;;;;5.65;3.13;;;;;;;18.58;35.54;102604.09;5068322;28;20085;-71
2022/03/21 01:22:25;;;;;;;5.28;3.08;;;;;;;18.55;35.74;102607.03;5066710;28;20036;-71
2022/03/21 01:24:51;;;;;;;6.30;3.40;;;;;;;18.53;35.84;102609.81;5069071;28;20054;-71
2022/03/21 01:27:16;;;;;;;6.57;3.92;;;;;;;18.54;36.11;102605.34;5065336;28;20028;-70
2022/03/21 01:29:42;;;;;;;6.95;3.88;;;;;;;18.55;36.13;102613.13;5066981;28;20491;-70
2022/03/21 01:32:07;;;;;;;8.93;3.90;;;;;;;18.55;35.95;102607.03;5065179;28;20029;-70
2022/03/21 01:34:33;;;;;;;7.53;3.83;;;;;;;18.54;35.96;102606.19;5067914;28;20039;-70
2022/03/21 01:36:58;;;;;;;10.48;3.80;;;;;;;18.53;35.84;102601.88;5064087;28;20102;-70
2022/03/21 01:39:24;;;;;;;5.45;3.80;;;;;;;18.53;35.86;102601.06;5067308;28;20391;-71
2022/03/21 01:41:49;;;;;;;8.38;4.38;;;;;;;18.53;35.71;102598.41;5066902;28;20123;-71
2022/03/21 01:44:17;;;;;;;5.47;3.47;;;;;;;18.53;35.93;102598.41;5063782;28;20488;-71
2022/03/21 01:46:47;;;;;;;3.85;2.97;;;;;;;18.53;35.77;102595.78;5068900;28;20036;-71
2022/03/21 01:49:13;;;;;;;5.15;3.22;;;;;;;18.53;35.55;102590.50;5065232;28;20479;-71
2022/03/21 01:51:40;;;;;;;4.95;3.45;;;;;;;18.52;35.75;102592.31;5067674;28;20024;-70
2022/03/21 01:56:51;;;;;;;6.78;3.60;;;;;;;18.52;35.63;102591.47;5066908;28;20265;-71
2022/03/21 01:59:19;;;;;;;4.50;3.38;;;;;;;18.52;35.69;102592.31;5065114;28;20032;-70
2022/03/21 02:01:45;;;;;;;4.93;3.45;;;;;;;18.50;35.64;102582.88;5066526;28;20049;-70
2022/03/21 02:04:11;;;;;;;4.68;3.30;;;;;;;18.51;35.73;102589.81;5068133;28;20020;-70
2022/03/21 02:06:37;;;;;;;5.28;3.45;;;;;;;18.49;35.65;102586.47;5065947;28;20064;-71
2022/03/21 02:09:06;;;;;;;4.38;3.13;;;;;;;18.49;35.67;102589.13;5065713;28;20064;-71
2022/03/21 02:11:33;;;;;;;3.72;2.92;;;;;;;18.49;35.56;102595.22;5068008;28;20029;-71
2022/03/21 02:14:00;;;;;;;4.55;3.38;;;;;;;18.48;35.51;102590.09;5062979;28;20299;-71
2022/03/21 02:16:27;;;;;;;6.07;2.80;;;;;;;18.47;35.53;102593.72;5066725;28;20028;-70
2022/03/21 02:18:53;;;;;;;6.03;3.70;;;;;;;18.46;35.44;102592.03;5066628;28;20200;-70
2022/03/21 02:21:54;;;;;;;4.18;3.25;;;;;;;18.42;35.37;102588.06;5067147;28;20124;-71
2022/03/21 02:24:19;;;;;;;5.57;2.88;;;;;;;18.44;35.42;102586.09;4993182;28;20064;-71
2022/03/21 02:26:46;;;;;;;3.83;2.78;;;;;;;18.44;35.39;102580.81;5005086;28;20116;-70
2022/03/21 02:29:13;;;;;;;3.75;3.17;;;;;;;18.42;35.43;102578.34;4988649;28;20121;-71
2022/03/21 02:31:39;;;;;;;4.57;3.28;;;;;;;18.42;35.40;102578.34;4985520;28;20041;-71
2022/03/21 02:34:05;;;;;;;4.53;3.33;;;;;;;18.42;35.22;102570.41;4990307;28;20042;-71
2022/03/21 02:36:32;;;;;;;4.85;3.42;;;;;;;18.43;35.45;102573.88;4985389;28;20078;-70
2022/03/21 02:38:58;;;;;;;5.53;3.17;;;;;;;18.43;35.46;102573.88;4982237;28;20419;-70
2022/03/21 02:41:24;;;;;;;4.82;3.30;;;;;;;18.43;35.48;102568.63;4984208;28;20085;-70
2022/03/21 02:43:54;;;;;;;5.28;3.40;;;;;;;18.43;35.25;102568.63;4982669;28;20030;-71
2022/03/21 02:46:21;;;;;;;3.53;2.78;;;;;;;18.43;35.28;102566.78;4985055;28;20113;-71
2022/03/21 02:48:47;;;;;;;4.13;3.03;;;;;;;18.44;35.35;102564.97;4993557;28;20437;-70
2022/03/21 02:51:14;;;;;;;3.63;2.58;;;;;;;18.44;35.27;102565.81;4983935;28;20497;-70
2022/03/21 02:53:40;;;;;;;4.07;3.05;;;;;;;18.45;35.13;102566.63;4982855;28;20481;-70
2022/03/21 02:56:06;;;;;;;3.92;2.80;;;;;;;18.45;35.17;102564.00;4985158;28;20038;-70
2022/03/21 02:58:32;;;;;;;4.93;2.80;;;;;;;18.45;35.11;102562.19;4983699;28;20023;-71
2022/03/21 03:01:15;;;;;;;4.70;2.50;;;;;;;18.42;34.84;102559.03;5030252;28;20036;-71
2022/03/21 03:03:42;;;;;;;3.10;2.45;;;;;;;18.43;35.04;102556.22;5066588;28;20137;-70
2022/03/21 03:06:08;;;;;;;3.28;2.70;;;;;;;18.43;34.99;102552.78;5068313;28;20029;-70
2022/03/21 03:08:34;;;;;;;3.00;2.53;;;;;;;18.43;35.05;102558.06;5050408;28;20031;-70
2022/03/21 03:11:00;;;;;;;5.38;2.83;;;;;;;18.42;35.05;102553.75;5065738;28;20036;-70
2022/03/21 03:13:25;;;;;;;4.40;2.78;;;;;;;18.41;35.02;102558.19;5063868;28;20027;-71
2022/03/21 03:15:51;;;;;;;4.18;2.90;;;;;;;18.41;34.98;102552.09;5067165;28;20035;-70
2022/03/21 03:18:17;;;;;;;4.20;3.10;;;;;;;18.38;35.21;102555.84;5066879;28;20411;-70
2022/03/21 03:20:53;;;;;;;4.88;2.88;;;;;;;18.36;35.16;102560.44;5062187;28;20032;-70
2022/03/21 03:23:21;;;;;;;4.03;2.40;;;;;;;18.37;35.01;102556.00;5064992;28;20047;-71
2022/03/21 03:25:48;;;;;;;3.70;3.03;;;;;;;18.36;35.03;102562.25;5066677;28;20056;-71
2022/03/21 03:28:15;;;;;;;3.45;2.58;;;;;;;18.36;34.82;102562.25;5064292;28;20499;-71
2022/03/21 03:30:40;;;;;;;3.20;2.50;;;;;;;18.35;35.15;102564.06;5064444;28;20040;-70
2022/03/21 03:33:08;;;;;;;3.58;2.50;;;;;;;18.35;34.87;102560.59;5066621;28;20020;-71
2022/03/21 03:35:34;;;;;;;2.88;2.25;;;;;;;18.33;34.80;102563.38;5046597;28;20032;-70
2022/03/21 03:37:59;;;;;;;4.80;2.42;;;;;;;18.32;34.99;102556.44;5066678;28;20589;-71
2022/03/21 03:40:25;;;;;;;3.38;2.70;;;;;;;18.32;34.99;102564.34;5062752;28;20033;-70
2022/03/21 03:42:51;;;;;;;3.25;2.42;;;;;;;18.32;34.98;102555.59;5065017;28;20040;-72
2022/03/21 03:45:16;;;;;;;3.00;2.30;;;;;;;18.30;35.07;102565.47;5061429;28;20119;-70
2022/03/21 03:47:42;;;;;;;3.40;1.92;;;;;;;18.30;35.05;102554.91;5065637;28;20470;-70
2022/03/21 03:50:08;;;;;;;3.22;1.98;;;;;;;18.30;35.05;102554.91;5066312;28;20452;-71
2022/03/21 03:52:33;;;;;;;2.45;2.13;;;;;;;18.29;34.99;102567.25;5065584;28;20029;-70
2022/03/21 03:54:59;;;;;;;3.60;2.40;;;;;;;18.27;34.91;102555.19;5060427;28;20040;-70
2022/03/21 03:57:25;;;;;;;3.72;2.20;;;;;;;18.26;35.01;102545.63;5064744;28;20041;-70
2022/03/21 03:59:50;;;;;;;3.00;2.45;;;;;;;18.25;34.92;102552.69;5064217;28;20032;-71
2022/03/21 04:02:16;;;;;;;3.05;2.05;;;;;;;18.25;34.91;102542.13;5064629;28;20391;-70
2022/03/21 04:04:41;;;;;;;3.22;2.35;;;;;;;18.26;35.00;102548.25;5064920;28;20346;-70
2022/03/21 04:07:06;;;;;;;3.38;2.38;;;;;;;18.24;34.99;102541.31;5063999;28;20036;-70
2022/03/21 04:09:32;;;;;;;2.45;2.08;;;;;;;18.24;34.75;102541.31;5061419;28;20028;-70
2022/03/21 04:11:58;;;;;;;2.67;2.47;;;;;;;18.24;34.75;102549.22;5063950;28;20029;-71
2022/03/21 04:14:23;;;;;;;3.67;2.28;;;;;;;18.23;34.82;102539.66;5063796;28;20119;-71
2022/03/21 04:19:14;;;;;;;2.45;1.92;;;;;;;18.24;34.76;102540.47;4942653;22;20068;-42
2022/03/21 04:21:40;;;;;;;2.30;2.10;;;;;;;18.23;34.82;102542.28;5086459;28;20059;-42
2022/03/21 04:24:06;;;;;;;3.58;2.45;;;;;;;18.23;34.75;102538.81;5084681;28;20040;-42
2022/03/21 04:26:31;;;;;;;2.33;2.05;;;;;;;18.22;34.80;102540.63;5072889;28;20391;-40
2022/03/21 04:28:56;;;;;;;2.75;2.20;;;;;;;18.21;34.96;102540.75;5073876;28;20036;-47
2022/03/21 04:31:22;;;;;;;2.33;2.00;;;;;;;18.21;34.77;102540.75;5090074;28;20035;-44
2022/03/21 04:33:48;;;;;;;2.15;1.85;;;;;;;18.20;34.72;102537.28;5071383;28;20087;-47
2022/03/21 04:36:14;;;;;;;3.58;2.60;;;;;;;18.19;34.71;102538.28;5070601;28;20055;-44
2022/03/21 04:38:39;;;;;;;3.70;1.90;;;;;;;18.18;34.59;102541.88;5070191;28;20024;-43
2022/03/21 04:41:06;;;;;;;3.08;1.90;;;;;;;18.18;34.77;102533.97;5082433;28;20039;-49
2022/03/21 04:43:32;;;;;;;2.80;2.03;;;;;;;18.17;34.80;102540.22;5081537;28;20041;-45
2022/03/21 04:45:58;;;;;;;2.40;1.75;;;;;;;18.16;34.72;102543.00;5069645;28;20035;-44
2022/03/21 04:48:24;;;;;;;2.58;2.00;;;;;;;18.16;34.58;102543.84;5089727;28;20059;-45
2022/03/21 04:50:51;;;;;;;2.75;2.20;;;;;;;18.15;34.65;102547.44;5082468;28;20029;-44
2022/03/21 04:53:17;;;;;;;2.80;1.80;;;;;;;18.15;34.69;102547.44;5070248;28;20451;-47
2022/03/21 04:55:42;;;;;;;3.00;1.95;;;;;;;18.14;34.53;102543.16;5066848;28;20024;-40
2022/03/21 04:58:09;;;;;;;2.72;1.85;;;;;;;18.14;34.54;102553.69;5082253;28;20528;-51
2022/03/21 05:00:37;;;;;;;2.33;1.90;;;;;;;18.14;34.53;102544.94;5069626;28;20032;-49
2022/03/21 05:03:07;;;;;;;2.40;1.80;;;;;;;18.14;34.74;102547.59;5069115;28;20039;-42
2022/03/21 05:05:36;;;;;;;2.50;1.95;;;;;;;18.14;34.62;102550.22;5069926;28;20557;-44
2022/03/21 05:08:03;;;;;;;2.70;2.00;;;;;;;18.15;34.56;102551.88;5069539;28;20078;-50
2022/03/21 05:10:29;;;;;;;1.98;1.70;;;;;;;18.15;34.75;102557.16;5070227;28;20020;-40
2022/03/21 05:12:55;;;;;;;2.80;1.90;;;;;;;18.16;34.65;102564.09;5068753;28;20032;-43
2022/03/21 05:15:21;;;;;;;2.20;1.40;;;;;;;18.16;34.64;102558.84;5077090;28;20530;-46
2022/03/21 05:17:46;;;;;;;2.83;1.90;;;;;;;18.14;34.45;102561.59;5069059;28;20040;-47
2022/03/21 05:20:17;;;;;;;2.42;2.00;;;;;;;18.15;34.50;102560.63;5069055;28;20029;-42
2022/03/21 05:30:57;;;;;;;3.50;2.03;;;;;;;18.16;34.54;102569.38;5069159;28;20059;-46
2022/03/21 05:31:08;;;;;;;8.02;2.80;;;;;;;18.27;36.85;102571.03;5078093;28;20049;-44
2022/03/21 05:36:22;;;;;;;3.60;1.60;;;;;;;18.20;36.06;102576.03;5077883;28;20104;-44
2022/03/21 05:38:48;;;;;;;5.35;1.73;;;;;;;18.18;35.84;102584.09;5085838;28;20648;-41
2022/03/21 05:41:13;;;;;;;2.88;1.52;;;;;;;18.14;35.84;102574.81;5060436;28;20047;-44
2022/03/21 05:43:39;;;;;;;6.57;1.40;;;;;;;18.13;35.72;102574.94;5083983;28;20036;-40
2022/03/21 05:46:05;;;;;;;4.07;1.75;;;;;;;18.13;35.64;102577.59;5075535;28;20043;-44
2022/03/21 05:51:16;;;;;;;8.85;1.67;;;;;;;18.12;35.43;102581.19;5067568;28;20047;-45
2022/03/21 05:53:42;;;;;;;7.05;1.50;;;;;;;18.13;35.44;102585.50;5069287;28;20321;-47
2022/03/21 05:56:08;;;;;;;4.53;1.55;;;;;;;18.11;35.58;102583.00;5071872;28;20475;-41
2022/03/21 05:58:33;;;;;;;3.08;1.65;;;;;;;18.11;35.49;102588.28;5069334;28;20027;-46
2022/03/21 06:00:59;;;;;;;3.53;1.90;;;;;;;18.11;35.44;102590.09;5082343;28;20032;-43
2022/03/21 06:03:24;;;;;;;3.88;2.00;;;;;;;18.12;35.23;102583.84;5086184;28;20031;-40
2022/03/21 06:05:51;;;;;;;3.30;1.48;;;;;;;18.11;35.22;102588.28;5068681;28;20025;-47
2022/03/21 06:08:17;;;;;;;2.78;1.58;;;;;;;18.09;35.17;102592.03;5073495;28;20036;-50
2022/03/21 06:10:42;;;;;;;5.03;2.00;;;;;;;18.09;35.24;102592.84;5073676;28;20519;-48
2022/03/21 06:13:08;;;;;;;3.47;1.83;;;;;;;18.11;35.10;102596.19;5083948;28;20429;-51
2022/03/21 06:15:37;;;;;;;3.88;1.77;;;;;;;18.11;35.06;102598.81;5084778;28;20445;-43
2022/03/21 06:18:15;;;;;;;3.22;1.70;;;;;;;18.10;35.15;102594.53;5088322;28;20454;-44
2022/03/21 06:20:42;;;;;;;2.88;1.52;;;;;;;18.12;35.05;102592.56;5069201;28;20028;-45
2022/03/21 06:23:08;;;;;;;2.63;1.77;;;;;;;18.15;35.07;102594.94;5074563;28;20074;-45
2022/03/21 06:25:35;;;;;;;3.58;1.85;;;;;;;18.18;35.05;102594.66;5078039;28;20652;-45
2022/03/21 06:28:01;;;;;;;2.15;1.42;;;;;;;18.21;34.96;102604.91;5080401;28;20044;-48
2022/03/21 06:30:28;;;;;;;2.42;1.60;;;;;;;18.26;34.81;102606.31;5066397;28;20056;-42
2022/03/21 06:32:53;;;;;;;1.77;1.13;;;;;;;18.31;34.81;102604.06;5066019;28;20111;-45
2022/03/21 06:35:19;;;;;;;6.43;2.00;;;;;;;18.36;34.64;102613.22;5087016;28;20494;-50
2022/03/21 06:37:44;;;;;;;3.03;1.48;;;;;;;18.42;34.67;102610.00;5088392;28;20103;-46
2022/03/21 06:40:11;;;;;;;3.60;1.80;;;;;;;18.45;34.71;102606.22;5082864;28;20400;-43
2022/03/21 06:42:36;;;;;;;5.70;1.75;;;;;;;18.49;34.72;102597.03;5082645;28;20126;-48
2022/03/21 06:45:02;;;;;;;4.38;1.95;;;;;;;18.53;34.64;102598.41;5081962;28;20157;-45
2022/03/21 06:47:28;;;;;;;3.40;1.42;;;;;;;18.58;34.80;102593.53;5082864;28;20395;-48
2022/03/21 06:49:53;;;;;;;2.95;1.73;;;;;;;18.61;34.87;102595.91;5077080;28;20042;-46
2022/03/21 06:52:19;;;;;;;3.05;1.95;;;;;;;18.66;34.89;102598.94;5081418;28;20060;-51
2022/03/21 06:54:49;;;;;;;3.35;1.60;;;;;;;18.69;34.85;102609.22;5076730;28;20032;-47
2022/03/21 06:57:18;;;;;;;2.55;1.63;;;;;;;18.75;34.75;102607.81;5088293;28;20035;-51
2022/03/21 06:59:46;;;;;;;3.10;1.50;;;;;;;18.80;34.75;102606.41;5073449;28;20049;-44
2022/03/21 07:02:12;;;;;;;2.72;2.00;;;;;;;18.85;34.78;102613.88;5064558;28;20031;-49
2022/03/21 07:04:38;;;;;;;3.33;1.85;;;;;;;18.89;34.73;102608.16;5065676;28;20657;-44
2022/03/21 07:07:04;;;;;;;4.38;2.40;;;;;;;18.94;34.93;102607.69;5081696;28;20115;-46
2022/03/21 07:09:29;;;;;;;2.30;1.58;;;;;;;18.96;35.02;102615.47;5073515;28;20042;-42
2022/03/21 07:11:55;;;;;;;4.18;1.75;;;;;;;18.98;34.99;102614.34;5081519;28;20491;-41
2022/03/21 07:14:20;;;;;;;3.67;2.10;;;;;;;19.02;35.12;102617.53;5085203;28;20028;-46
2022/03/21 07:16:47;;;;;;;3.30;2.20;;;;;;;19.05;35.12;102615.41;5081118;28;20092;-41
2022/03/21 07:19:12;;;;;;;4.05;2.25;;;;;;;19.08;35.25;102615.13;5074210;28;20052;-45
2022/03/21 07:21:38;;;;;;;4.35;2.38;;;;;;;19.11;35.23;102614.00;5078956;28;20036;-48
2022/03/21 07:24:04;;;;;;;2.13;1.60;;;;;;;19.12;35.23;102616.50;5075127;28;20058;-40
2022/03/21 07:26:31;;;;;;;7.70;2.28;;;;;;;19.17;35.44;102613.41;5080157;28;20404;-49
2022/03/21 07:28:57;;;;;;;2.83;2.00;;;;;;;19.23;35.55;102618.09;5085683;28;20028;-42
2022/03/21 07:31:23;;;;;;;3.17;1.50;;;;;;;19.28;35.65;102615.84;5077643;28;20028;-39
2022/03/21 07:33:49;;;;;;;3.58;1.98;;;;;;;19.33;36.18;102613.59;5086368;28;20081;-42
2022/03/21 07:36:15;;;;;;;5.55;2.30;;;;;;;19.35;36.47;102616.09;5066203;28;20210;-42
2022/03/21 07:38:40;;;;;;;6.10;2.53;;;;;;;19.35;36.73;102614.28;5077173;28;20051;-40
2022/03/21 07:41:07;;;;;;;5.47;1.90;;;;;;;19.38;36.84;102611.28;5081391;28;20035;-45
2022/03/21 07:43:33;;;;;;;3.08;2.05;;;;;;;19.40;36.84;102614.63;5078398;28;20186;-42
2022/03/21 07:48:44;;;;;;;3.35;1.90;;;;;;;19.47;36.73;102610.41;5067739;28;20043;-40
2022/03/21 07:51:10;;;;;;;5.40;1.75;;;;;;;19.49;36.67;102613.72;5079885;28;20024;-41
2022/03/21 07:53:36;;;;;;;5.85;1.80;;;;;;;19.52;36.70;102610.81;5072663;28;20096;-39
2022/03/21 07:56:02;;;;;;;4.53;2.00;;;;;;;19.55;36.67;102610.50;5086606;28;20449;-39
2022/03/21 07:58:28;;;;;;;4.32;2.20;;;;;;;19.54;36.74;102603.56;5078925;28;20029;-42
2022/03/21 08:00:53;;;;;;;7.90;2.00;;;;;;;19.57;37.31;102609.53;5075613;28;20126;-38
2022/03/21 08:03:19;;;;;;;3.83;1.77;;;;;;;19.58;37.28;102603.25;5078035;28;20039;-39
2022/03/21 08:05:45;;;;;;;6.60;2.08;;;;;;;19.56;37.23;102606.06;5078852;28;20033;-43
2022/03/21 08:08:11;;;;;;;5.07;1.98;;;;;;;19.57;37.14;102599.78;5072488;28;20039;-38
2022/03/21 08:10:36;;;;;;;2.45;1.42;;;;;;;19.57;37.23;102593.66;5075165;28;20028;-41
2022/03/21 08:13:02;;;;;;;4.47;2.05;;;;;;;19.57;37.06;102598.94;5072528;28;20021;-45
2022/03/21 08:15:28;;;;;;;3.33;2.10;;;;;;;19.55;36.94;102592.00;5080619;28;20040;-44
2022/03/21 08:18:00;;;;;;;3.65;1.65;;;;;;;19.53;36.88;102593.97;5084502;28;20059;-43
2022/03/21 08:20:35;;;;;;;2.55;1.52;;;;;;;19.54;36.71;102594.78;5077515;28;20024;-46
2022/03/21 08:23:02;;;;;;;5.03;1.65;;;;;;;19.53;36.72;102598.41;5079727;28;20031;-48
2022/03/21 08:25:28;;;;;;;3.30;2.10;;;;;;;19.52;36.85;102597.59;5083626;28;20036;-45
2022/03/21 08:27:54;;;;;;;4.88;1.88;;;;;;;19.52;36.76;102594.94;5080956;28;20020;-44
2022/03/21 08:30:20;;;;;;;2.10;1.40;;;;;;;19.52;36.79;102591.47;5086830;28;20657;-49
2022/03/21 08:32:46;;;;;;;3.05;1.75;;;;;;;19.51;36.77;102595.94;5080955;28;20120;-50
2022/03/21 08:35:13;;;;;;;4.80;1.63;;;;;;;19.52;36.65;102586.19;5083950;28;20107;-39
2022/03/21 08:37:39;;;;;;;3.40;1.65;;;;;;;19.51;36.58;102595.94;5071223;28;20036;-43
2022/03/21 08:40:07;;;;;;;2.47;1.58;;;;;;;19.52;36.71;102592.31;5077636;28;20047;-45
2022/03/21 08:42:32;;;;;;;2.92;1.60;;;;;;;19.50;36.61;102599.53;5076055;28;20035;-48
2022/03/21 08:44:58;;;;;;;3.97;1.65;;;;;;;19.50;36.51;102601.34;5069604;28;20029;-46
2022/03/21 08:47:26;;;;;;;4.03;1.60;;;;;;;19.49;36.50;102599.66;5071336;28;20038;-39
2022/03/21 08:49:52;;;;;;;12.05;1.65;;;;;;;19.47;36.06;102602.47;5065553;28;20169;-39
2022/03/21 08:52:19;;;;;;;11.60;1.90;;;;;;;19.46;35.74;102600.81;5067844;28;20126;-44
2022/03/21 08:54:45;;;;;;;24.88;2.13;;;;;;;19.47;35.60;102597.19;5050819;28;20089;-46
2022/03/21 08:57:11;;;;;;;10.77;2.67;;;;;;;19.47;35.27;102597.19;5063384;28;20036;-45
2022/03/21 08:59:37;;;;;;;11.07;1.83;;;;;;;19.47;35.24;102599.81;5065256;28;20549;-51
2022/03/21 09:02:04;;;;;;;6.97;2.33;;;;;;;19.46;35.25;102592.88;5068790;28;20029;-46
2022/03/21 09:04:29;;;;;;;12.00;1.98;;;;;;;19.46;34.65;102597.31;5066968;28;20409;-47
2022/03/21 09:06:55;;;;;;;4.18;1.60;;;;;;;19.42;34.79;102595.97;5063769;28;20133;-47
2022/03/21 09:09:21;;;;;;;5.95;2.78;;;;;;;19.38;34.31;102590.16;5069550;28;20075;-48
2022/03/21 09:11:47;;;;;;;3.50;1.90;;;;;;;19.34;33.54;102588.81;5069631;28;20029;-43
2022/03/21 09:14:14;;;;;;;5.22;1.98;;;;;;;19.31;32.16;102589.13;5069514;28;20024;-51
2022/03/21 09:16:42;;;;;;;8.23;2.08;;;;;;;19.26;31.56;102586.09;5068121;28;20024;-43
2022/03/21 09:19:08;;;;;;;8.40;2.17;;;;;;;19.23;31.55;102583.75;5064094;28;20510;-49
2022/03/21 09:21:35;;;;;;;6.90;2.38;;;;;;;19.22;31.59;102579.44;5069481;28;20452;-44
2022/03/21 09:24:00;;;;;;;6.25;1.77;;;;;;;19.21;31.41;102577.78;5076102;28;20035;-50
2022/03/21 09:26:26;;;;;;;3.17;1.73;;;;;;;19.19;31.32;102579.75;5079207;28;20426;-45
2022/03/21 09:29:02;;;;;;;3.15;1.40;;;;;;;19.17;31.29;102577.25;5066929;28;20139;-44
2022/03/21 09:31:27;;;;;;;;;;;;;;;19.07;30.95;102581.75;5067531;28;20036;-45
2022/03/21 09:33:53;;;;;;;5.90;1.88;;;;;;;19.10;31.71;102580.63;5088113;28;20327;-51
2022/03/21 09:36:19;;;;;;;4.63;1.67;;;;;;;19.12;31.65;102576.03;5090015;28;20028;-43
2022/03/21 09:38:45;;;;;;;3.97;1.88;;;;;;;19.14;31.70;102577.53;5089926;28;20324;-39
2022/03/21 09:41:14;;;;;;;7.38;1.83;;;;;;;19.15;31.92;102578.38;5089147;28;20073;-49
2022/03/21 09:43:40;;;;;;;2.03;1.38;;;;;;;19.16;32.14;102569.47;5085256;28;20064;-50
2022/03/21 09:46:10;;;;;;;5.35;2.20;;;;;;;19.16;32.33;102569.47;5089236;28;20455;-46
2022/03/21 09:48:35;;;;;;;2.47;1.52;;;;;;;19.17;32.51;102565.84;5088975;28;20043;-43
2022/03/21 09:51:04;;;;;;;3.22;1.30;;;;;;;19.17;32.59;102560.56;5088973;28;20028;-42
2022/03/21 09:53:29;;;;;;;4.80;1.65;;;;;;;19.19;32.53;102563.88;5080167;28;20032;-51
2022/03/21 09:55:56;;;;;;;3.13;1.15;;;;;;;19.20;32.65;102570.84;5068605;28;20051;-42
2022/03/21 09:58:22;;;;;;;1.92;1.13;;;;;;;19.19;32.93;102558.59;5071484;28;20032;-46
2022/03/21 10:00:49;;;;;;;2.78;1.50;;;;;;;19.23;32.85;102570.53;5088872;28;20398;-41
2022/03/21 10:03:18;;;;;;;3.28;1.42;;;;;;;19.25;32.95;102559.81;5087197;28;20540;-46
2022/03/21 10:05:46;;;;;;;5.35;1.70;;;;;;;19.26;32.91;102559.66;5088837;28;20028;-54
2022/03/21 10:08:23;;;;;;;2.28;1.10;;;;;;;19.28;33.02;102556.88;5088789;28;20217;-46
2022/03/21 10:10:59;;;;;;;2.75;1.40;;;;;;;19.29;33.07;102559.38;5087542;28;20023;-49
2022/03/21 10:13:31;;;;;;;4.20;1.42;;;;;;;19.28;33.22;102556.88;5087582;28;20040;-45
2022/03/21 10:16:18;;;;;;;5.03;1.60;;;;;;;19.23;33.29;102559.97;5088478;28;20046;-49
2022/03/21 10:18:52;;;;;;;2.75;1.30;;;;;;;19.22;33.39;102560.94;5069495;28;20054;-53
2022/03/21 10:21:19;;;;;;;4.20;1.53;;;;;;;19.21;33.62;102548.72;5070360;28;20480;-43
2022/03/21 10:23:58;;;;;;;1.92;1.17;;;;;;;19.19;33.58;102548.03;5068281;28;20387;-46
2022/03/21 10:26:25;;;;;;;2.63;1.20;;;;;;;19.19;33.76;102548.03;5067872;28;20453;-48
2022/03/21 10:28:53;;;;;;;2.85;1.10;;;;;;;19.17;33.93;102545.53;5068501;28;20029;-52
2022/03/21 10:31:34;;;;;;;2.45;1.35;;;;;;;19.14;33.91;102542.38;5073476;28;20708;-52
2022/03/21 10:34:01;;;;;;;3.45;1.20;;;;;;;19.14;34.05;102539.72;5074615;28;20086;-42
2022/03/21 10:36:26;;;;;;;3.05;1.25;;;;;;;19.14;34.09;102539.72;5079838;28;20027;-44
2022/03/21 10:39:06;;;;;;;3.38;1.38;;;;;;;19.10;34.01;102543.66;5071090;28;20039;-55
2022/03/21 10:41:36;;;;;;;4.18;1.20;;;;;;;19.09;34.08;102536.69;5088510;28;20059;-48
2022/03/21 10:44:03;;;;;;;3.70;1.05;;;;;;;19.10;34.25;102536.56;5085383;28;20028;-44
2022/03/21 10:46:29;;;;;;;1.83;1.00;;;;;;;19.09;34.35;102531.41;5084120;28;20056;-47
2022/03/21 10:49:08;;;;;;;2.97;0.95;;;;;;;19.06;34.48;102534.34;5068508;28;20527;-55
2022/03/21 10:51:51;;;;;;;3.08;1.27;;;;;;;19.03;34.50;102529.38;5076819;28;20274;-52
2022/03/21 10:54:40;;;;;;;3.83;1.02;;;;;;;19.01;35.17;102518.13;5071299;28;20469;-48
2022/03/21 10:57:33;;;;;;;3.45;0.95;;;;;;;19.03;34.99;102516.16;5068106;28;20444;-48
2022/03/21 11:00:20;;;;;;;3.70;1.10;;;;;;;18.99;35.15;102510.34;5072858;28;20494;-49
2022/03/21 11:02:55;;;;;;;2.67;0.90;;;;;;;19.01;35.21;102507.56;5080747;28;20036;-45
2022/03/21 11:27:02;;;;;;;3.33;1.17;;;;;;;18.89;35.57;102489.31;5064376;28;20589;-46
2022/03/21 11:29:45;;;;;;;1.98;0.95;;;;;;;18.90;35.58;102482.22;5043257;28;20144;-49
2022/03/21 11:32:34;;;;;;;3.05;1.00;;;;;;;18.92;35.69;102488.16;5080961;28;20055;-41
2022/03/21 11:35:22;;;;;;;1.83;0.90;;;;;;;18.92;35.56;102484.69;5048410;28;20040;-48
2022/03/21 11:37:48;;;;;;;4.10;1.38;;;;;;;18.94;35.38;102485.34;5046945;28;20029;-50
2022/03/21 11:40:33;;;;;;;1.90;1.10;;;;;;;18.93;35.40;102478.41;5046930;28;20047;-46
2022/03/21 11:43:17;;;;;;;2.03;0.97;;;;;;;18.90;35.56;102475.09;5044055;28;20041;-43
2022/03/21 11:45:44;;;;;;;1.55;0.75;;;;;;;18.92;35.50;102461.75;5049228;28;20033;-47
2022/03/21 11:48:18;;;;;;;1.63;1.00;;;;;;;18.89;35.37;102457.63;5046270;28;20094;-45
2022/03/21 11:50:47;;;;;;;2.08;0.93;;;;;;;18.91;35.37;102452.16;5045416;28;20024;-56
2022/03/21 11:53:14;;;;;;;2.45;1.00;;;;;;;18.91;35.24;102446.88;5046490;28;20025;-51
2022/03/21 11:55:43;;;;;;;1.38;1.08;;;;;;;18.92;35.19;102445.06;5043869;28;20029;-40
2022/03/21 11:58:23;;;;;;;2.60;1.10;;;;;;;18.89;35.26;102446.22;5042443;28;20116;-49
2022/03/21 12:01:15;;;;;;;3.72;1.08;;;;;;;18.87;35.66;102440.25;5043260;28;20033;-49
2022/03/21 12:03:42;;;;;;;2.58;1.10;;;;;;;18.88;35.43;102439.28;5066977;28;20073;-50
2022/03/21 12:06:20;;;;;;;25.73;3.05;;;;;;;18.87;35.79;102435.81;5044872;28;20040;-50
2022/03/21 12:08:59;;;;;;;21.40;2.45;;;;;;;18.87;35.68;102427.06;5045617;28;20056;-48